Northwest Florida Beaches International Airport

Airport
ICAO code: 
KECP
Summary
ICAO Region: 
NAM
Territory: 
Location: 
Panama City Beach, Florida,
Elevation: 
69 ft
Coordinates: 
Aerial View: 
30° 21' 17.99" N, 85° 47' 58.39" W
Metar
Observation
KECP 040816Z AUTO 32003KT 1SM R16/P6000FT BR BKN001 OVC023 11/11 A3010 RMK AO2 T01110111
Station
PANAMA CITY
Date/Time
2021-12-04 08:16:00
Wind direction
320°
Wind speed
03 kts
Lowest cloud amount
broken clouds
Temperature
11.1°C
Dew point
11.1°C
Humidity
100%
Weather condition
mist

Description

The Northwest Florida Beaches International Airport is an international airport located north of Panama City Beach, Florida.

Climatology

Humid “subtropical” climate (Köppen climate classification Cfa) - characterized by hot, humid summers and cool winters. Significant amounts of precipitation occur in all seasons in most areas.

Runways

Designator Length Width Surface Rops
16/34 3048 0 CON No/No
Airport map: 
Aerial View: 

SKYbrary Partners:

Safety knowledge contributed by: